createdAt,value
2022-11-22T00:00:50.276Z,27.63
2022-11-22T00:03:55.159Z,25.93
2022-11-22T00:06:58.566Z,24.53
2022-11-22T00:10:00.790Z,23.47
2022-11-22T00:13:04.694Z,23.20
2022-11-22T00:16:06.550Z,20.97
2022-11-22T00:19:09.899Z,20.73
2022-11-22T00:22:11.814Z,21.63
2022-11-22T00:25:14.605Z,20.90
2022-11-22T00:28:16.503Z,21.00
2022-11-22T00:31:18.589Z,21.43
2022-11-22T00:34:20.415Z,22.40
2022-11-22T00:37:24.209Z,19.70
2022-11-22T00:40:26.042Z,19.33
2022-11-22T00:43:28.223Z,21.40
2022-11-22T00:46:30.090Z,19.87
2022-11-22T00:49:32.377Z,22.03
2022-11-22T00:52:34.369Z,21.27
2022-11-22T00:55:36.530Z,22.90
2022-11-22T00:58:38.341Z,23.03
2022-11-22T01:01:40.656Z,23.83
2022-11-22T01:04:42.562Z,22.80
2022-11-22T01:07:45.154Z,22.97
2022-11-22T01:10:47.074Z,23.23
2022-11-22T01:13:49.258Z,24.43
2022-11-22T01:16:51.104Z,24.90
2022-11-22T01:19:53.180Z,23.93
2022-11-22T01:22:54.961Z,23.90
2022-11-22T01:25:57.027Z,25.13
2022-11-22T01:28:58.860Z,29.10
2022-11-22T01:32:00.951Z,28.10
2022-11-22T01:35:03.086Z,27.43
2022-11-22T01:38:05.196Z,28.27
2022-11-22T01:41:07.011Z,29.00
2022-11-22T01:44:21.293Z,30.97
2022-11-22T01:47:25.325Z,30.47
2022-11-22T01:50:29.499Z,32.10
2022-11-22T01:53:36.443Z,30.20
2022-11-22T01:56:42.259Z,29.83
2022-11-22T01:59:53.266Z,31.30
2022-11-22T02:03:01.931Z,29.83
2022-11-22T02:06:04.738Z,29.47
2022-11-22T02:09:12.560Z,31.47
2022-11-22T02:12:17.020Z,31.27
2022-11-22T02:15:19.255Z,31.10
2022-11-22T02:18:21.202Z,32.17
2022-11-22T02:21:23.601Z,33.07
2022-11-22T02:24:38.857Z,31.77
2022-11-22T02:27:41.019Z,31.50
2022-11-22T02:30:42.989Z,29.10
2022-11-22T02:33:45.034Z,30.87
2022-11-22T02:36:51.267Z,30.73
2022-11-22T02:39:58.417Z,29.23
2022-11-22T02:43:05.382Z,28.53
2022-11-22T02:46:10.589Z,28.77
2022-11-22T02:49:12.429Z,26.70
2022-11-22T02:52:18.577Z,29.90
2022-11-22T02:55:20.453Z,30.20
2022-11-22T02:58:22.558Z,31.60
2022-11-22T03:01:24.432Z,29.77
2022-11-22T03:04:27.675Z,27.67
2022-11-22T03:07:29.560Z,26.53
2022-11-22T03:10:31.793Z,26.20
2022-11-22T03:13:33.645Z,24.13
2022-11-22T03:16:36.929Z,24.67
2022-11-22T03:19:38.844Z,25.30
2022-11-22T03:22:40.965Z,26.27
2022-11-22T03:25:42.867Z,26.60
2022-11-22T03:28:45.002Z,28.30
2022-11-22T03:31:47.024Z,27.00
2022-11-22T03:34:49.942Z,26.13
2022-11-22T03:37:51.789Z,25.87
2022-11-22T03:40:53.868Z,26.87
2022-11-22T03:43:55.805Z,27.10
2022-11-22T03:46:57.955Z,27.73
2022-11-22T03:49:59.811Z,26.63
2022-11-22T03:53:01.883Z,27.87
2022-11-22T03:56:04.581Z,29.00
2022-11-22T03:59:06.649Z,29.83
2022-11-22T04:02:09.803Z,30.60
2022-11-22T04:05:12.050Z,31.10
2022-11-22T04:08:14.721Z,31.67
2022-11-22T04:11:17.900Z,34.13
2022-11-22T04:14:38.291Z,33.03
2022-11-22T04:17:44.647Z,30.93
2022-11-22T04:21:05.312Z,29.70
2022-11-22T04:24:30.128Z,31.17
2022-11-22T04:27:31.906Z,27.87
2022-11-22T04:30:53.569Z,29.03
2022-11-22T04:33:55.342Z,30.13
2022-11-22T04:36:57.541Z,26.70
2022-11-22T04:39:59.409Z,26.70
2022-11-22T04:43:20.324Z,26.50
2022-11-22T04:46:22.937Z,25.53
2022-11-22T04:49:25.113Z,23.83
2022-11-22T04:52:45.633Z,26.13
2022-11-22T04:55:48.059Z,26.63
2022-11-22T04:58:51.423Z,26.90
2022-11-22T05:01:53.595Z,29.43
2022-11-22T05:04:55.409Z,30.13
2022-11-22T05:08:00.569Z,31.67
2022-11-22T05:11:02.358Z,30.23
2022-11-22T05:14:04.525Z,29.00
2022-11-22T05:17:07.771Z,29.10
2022-11-22T05:20:12.970Z,29.83
2022-11-22T05:23:35.359Z,30.53
2022-11-22T05:26:37.697Z,34.27
2022-11-22T05:29:40.267Z,34.10
2022-11-22T05:32:42.478Z,32.87
2022-11-22T05:35:44.718Z,33.67
2022-11-22T05:38:48.008Z,39.57
2022-11-22T05:41:56.056Z,35.37
2022-11-22T05:44:58.274Z,30.73
2022-11-22T05:48:00.499Z,29.70
2022-11-22T05:51:07.707Z,35.87
2022-11-22T05:54:09.603Z,32.57
2022-11-22T05:57:14.418Z,33.17
2022-11-22T06:00:16.946Z,31.37
2022-11-22T06:03:19.038Z,33.07
2022-11-22T06:06:21.501Z,31.30
2022-11-22T06:09:23.601Z,32.20
2022-11-22T06:12:25.405Z,30.27
2022-11-22T06:15:27.495Z,33.00
2022-11-22T06:18:29.292Z,32.73
2022-11-22T06:21:31.404Z,30.00
2022-11-22T06:24:33.251Z,32.03
2022-11-22T06:27:35.331Z,30.30
2022-11-22T06:30:37.368Z,32.60
2022-11-22T06:33:40.787Z,31.60
2022-11-22T06:36:42.641Z,32.90
2022-11-22T06:39:44.722Z,31.33
2022-11-22T06:42:46.572Z,30.50
2022-11-22T06:45:48.627Z,31.23
2022-11-22T06:48:50.897Z,33.10
2022-11-22T06:51:52.960Z,30.70
2022-11-22T06:54:54.749Z,32.17
2022-11-22T06:57:57.029Z,34.73
2022-11-22T07:01:09.590Z,34.93
2022-11-22T07:04:11.739Z,34.20
2022-11-22T07:07:13.611Z,32.37
2022-11-22T07:10:15.923Z,36.07
2022-11-22T07:13:18.013Z,33.80
2022-11-22T07:16:22.197Z,36.20
2022-11-22T07:19:24.164Z,35.33
2022-11-22T07:22:26.218Z,38.63
2022-11-22T07:25:28.027Z,43.03
2022-11-22T07:28:30.402Z,40.03
2022-11-22T07:31:32.554Z,34.83
2022-11-22T07:34:34.698Z,38.30
2022-11-22T07:37:36.555Z,33.97
2022-11-22T07:40:38.615Z,32.50
2022-11-22T07:43:41.333Z,34.57
2022-11-22T07:46:43.447Z,32.97
2022-11-22T07:49:45.256Z,31.47
2022-11-22T07:52:55.471Z,32.07
2022-11-22T07:55:57.676Z,30.50
2022-11-22T07:58:59.934Z,30.27
2022-11-22T08:02:02.947Z,28.43
2022-11-22T08:05:07.629Z,27.47
2022-11-22T08:08:12.545Z,28.73
2022-11-22T08:11:14.762Z,27.87
2022-11-22T08:14:16.655Z,24.53
2022-11-22T08:17:18.833Z,26.53
2022-11-22T08:20:20.720Z,22.07
2022-11-22T08:23:22.788Z,26.03
2022-11-22T08:26:24.711Z,23.67
2022-11-22T08:29:29.256Z,24.83
2022-11-22T08:32:31.201Z,26.47
2022-11-22T08:35:33.498Z,26.03
2022-11-22T08:38:36.109Z,26.27
2022-11-22T08:41:40.581Z,24.17
2022-11-22T08:44:42.512Z,27.67
2022-11-22T08:47:44.674Z,26.03
2022-11-22T08:51:04.789Z,28.60
2022-11-22T08:54:06.882Z,27.20
2022-11-22T08:57:08.697Z,28.20
2022-11-22T09:00:11.380Z,28.67
2022-11-22T09:03:13.315Z,30.93
2022-11-22T09:09:48.192Z,31.70
2022-11-22T09:12:50.671Z,28.67
2022-11-22T09:15:56.698Z,28.63
2022-11-22T09:19:01.732Z,31.60
2022-11-22T09:22:03.538Z,28.60
2022-11-22T09:25:06.607Z,26.67
2022-11-22T09:28:08.554Z,28.57
2022-11-22T09:31:19.552Z,27.13
2022-11-22T09:34:21.653Z,26.60
2022-11-22T09:37:24.147Z,27.97
2022-11-22T09:40:26.023Z,28.33
2022-11-22T09:44:00.551Z,28.53
2022-11-22T09:47:19.696Z,26.77
2022-11-22T09:50:26.796Z,25.47
2022-11-22T09:53:43.877Z,22.20
2022-11-22T09:56:49.562Z,23.70
2022-11-22T10:00:00.917Z,24.07
2022-11-22T10:03:32.622Z,26.00
2022-11-22T10:06:38.581Z,23.17
2022-11-22T10:09:48.037Z,23.57
2022-11-22T10:12:59.442Z,24.60
2022-11-22T10:16:31.580Z,21.80
2022-11-22T10:19:41.483Z,21.57
2022-11-22T10:22:45.120Z,20.20
2022-11-22T10:26:17.487Z,20.30
2022-11-22T10:29:57.919Z,20.40
2022-11-22T10:33:19.779Z,20.90
2022-11-22T10:36:45.831Z,21.53
2022-11-22T10:40:02.044Z,21.37
2022-11-22T10:43:20.678Z,23.10
2022-11-22T10:46:31.368Z,22.00
2022-11-22T10:50:05.996Z,21.10
2022-11-22T10:53:26.298Z,20.83
2022-11-22T10:56:35.067Z,22.10
2022-11-22T10:59:52.830Z,22.53
2022-11-22T11:03:22.515Z,22.47
2022-11-22T11:06:56.867Z,23.50
2022-11-22T11:10:11.457Z,25.33
2022-11-22T11:13:24.904Z,23.50
2022-11-22T11:16:32.858Z,25.10
2022-11-22T11:19:38.954Z,24.50
2022-11-22T11:26:26.070Z,22.93
2022-11-22T11:29:39.354Z,24.57
2022-11-22T11:32:58.340Z,24.67
2022-11-22T11:36:33.339Z,26.37
2022-11-22T11:39:38.410Z,26.43
2022-11-22T11:42:42.787Z,26.23
2022-11-22T11:45:45.515Z,25.43
2022-11-22T11:48:50.930Z,25.23
2022-11-22T11:51:56.876Z,25.37
2022-11-22T11:55:01.926Z,24.80
2022-11-22T11:58:20.776Z,24.03
2022-11-22T12:01:24.716Z,25.00
2022-11-22T12:04:34.599Z,26.80
2022-11-22T12:07:36.851Z,26.07
2022-11-22T12:11:04.222Z,26.43
2022-11-22T12:14:30.421Z,26.87
2022-11-22T12:17:39.229Z,27.10
2022-11-22T12:20:59.161Z,24.87
2022-11-22T12:24:42.857Z,27.00
2022-11-22T12:27:33.151Z,25.90
2022-11-22T12:30:37.980Z,26.93
2022-11-22T12:33:47.132Z,28.07
2022-11-22T12:37:17.254Z,27.00
2022-11-22T12:40:27.626Z,26.10
2022-11-22T12:43:37.726Z,26.23
2022-11-22T12:47:01.108Z,27.00
2022-11-22T12:50:15.021Z,26.17
2022-11-22T12:53:30.629Z,26.87
2022-11-22T12:56:50.315Z,25.73
2022-11-22T13:00:16.343Z,26.53
2022-11-22T13:03:33.186Z,27.27
2022-11-22T13:06:56.950Z,27.40
2022-11-22T13:10:08.915Z,25.73
2022-11-22T13:14:22.371Z,27.37
2022-11-22T13:17:37.431Z,24.83
2022-11-22T13:24:40.342Z,27.37
2022-11-22T13:27:47.043Z,26.73
2022-11-22T13:31:39.469Z,28.77
2022-11-22T13:35:04.873Z,30.30
2022-11-22T13:38:16.769Z,28.07
2022-11-22T13:41:27.803Z,28.23
2022-11-22T13:44:53.051Z,29.17
2022-11-22T13:47:58.874Z,27.53
2022-11-22T13:51:01.734Z,27.30
2022-11-22T13:54:33.285Z,26.33
2022-11-22T13:57:37.372Z,25.87
2022-11-22T14:00:40.406Z,26.33
2022-11-22T14:03:50.218Z,26.77
2022-11-22T14:07:33.193Z,26.20
2022-11-22T14:10:51.994Z,26.87
2022-11-22T14:14:04.989Z,27.57
2022-11-22T14:17:37.034Z,28.60
2022-11-22T14:21:07.002Z,28.20
2022-11-22T14:24:13.642Z,27.43
2022-11-22T14:27:34.576Z,26.50
2022-11-22T14:30:46.810Z,29.53
2022-11-22T14:34:15.730Z,28.73
2022-11-22T14:37:17.504Z,28.27
2022-11-22T14:40:40.467Z,27.33
2022-11-22T14:43:44.026Z,29.57
2022-11-22T14:46:56.636Z,30.47
2022-11-22T14:50:00.596Z,29.37
2022-11-22T14:53:15.542Z,30.30
2022-11-22T14:56:23.261Z,26.80
2022-11-22T14:59:31.576Z,29.07
2022-11-22T15:03:02.068Z,28.50
2022-11-22T15:09:11.057Z,28.93
2022-11-22T15:10:23.544Z,28.00
2022-11-22T15:13:44.136Z,29.87
2022-11-22T15:59:39.586Z,32.57
2022-11-22T16:02:49.912Z,34.17
2022-11-22T16:06:07.808Z,36.17
2022-11-22T16:09:24.958Z,35.13
2022-11-22T16:12:36.772Z,34.10
2022-11-22T16:15:39.272Z,35.17
2022-11-22T16:18:42.606Z,35.00
2022-11-22T16:22:01.755Z,36.40
2022-11-22T16:25:29.404Z,34.13
2022-11-22T16:28:35.968Z,35.77
2022-11-22T16:31:39.737Z,36.73
2022-11-22T16:34:44.028Z,39.63
2022-11-22T16:37:48.140Z,37.47
2022-11-22T16:40:58.594Z,37.77
2022-11-22T16:44:03.924Z,35.70
2022-11-22T16:47:09.624Z,35.37
2022-11-22T16:50:15.966Z,32.33
2022-11-22T16:53:18.244Z,36.50
2022-11-22T16:56:20.105Z,32.97
2022-11-22T16:59:22.191Z,34.40
2022-11-22T17:02:24.835Z,36.67
2022-11-22T17:05:26.975Z,36.33
2022-11-22T17:08:28.778Z,35.63
2022-11-22T17:11:31.977Z,36.03
2022-11-22T17:14:33.918Z,35.60
2022-11-22T17:17:36.279Z,33.97
2022-11-22T17:20:39.312Z,34.83
2022-11-22T17:23:42.057Z,36.23
2022-11-22T17:26:43.888Z,37.97
2022-11-22T17:29:50.972Z,40.30
2022-11-22T17:32:53.387Z,39.37
2022-11-22T17:35:55.970Z,36.77
2022-11-22T17:38:59.556Z,39.93
2022-11-22T17:42:01.690Z,41.50
2022-11-22T17:45:03.663Z,38.20
2022-11-22T17:48:06.236Z,39.90
2022-11-22T17:51:12.405Z,38.20
2022-11-22T17:54:14.629Z,40.30
2022-11-22T17:57:20.118Z,37.73
2022-11-22T18:00:28.408Z,38.23
2022-11-22T18:03:32.568Z,37.23
2022-11-22T18:06:34.814Z,38.27
2022-11-22T18:09:36.937Z,37.47
2022-11-22T18:12:58.707Z,41.00
2022-11-22T18:16:05.414Z,38.73
2022-11-22T18:19:07.594Z,39.27
2022-11-22T18:22:09.876Z,39.87
2022-11-22T18:25:12.116Z,38.13
2022-11-22T18:28:13.978Z,38.50
2022-11-22T18:31:16.144Z,39.20
2022-11-22T18:34:18.620Z,39.80
2022-11-22T18:37:20.690Z,39.30
2022-11-22T18:40:22.805Z,38.83
2022-11-22T18:43:26.065Z,38.77
2022-11-22T18:46:27.978Z,37.63
2022-11-22T18:49:31.071Z,38.17
2022-11-22T18:52:38.194Z,37.40
2022-11-22T18:55:40.317Z,38.10
2022-11-22T18:58:44.164Z,36.83
2022-11-22T19:01:46.620Z,40.37
2022-11-22T19:04:49.777Z,39.13
2022-11-22T19:07:53.212Z,37.93
2022-11-22T19:10:59.949Z,39.83
2022-11-22T19:14:03.410Z,37.63
2022-11-22T19:17:05.852Z,38.33
2022-11-22T19:20:16.837Z,38.60
2022-11-22T19:23:31.783Z,35.53
2022-11-22T19:26:34.153Z,37.13
2022-11-22T19:29:36.150Z,39.00
2022-11-22T19:32:38.330Z,36.27
2022-11-22T19:35:40.785Z,39.77
2022-11-22T19:38:43.997Z,39.77
2022-11-22T19:41:46.136Z,38.93
2022-11-22T19:44:48.299Z,35.17
2022-11-22T19:47:50.165Z,38.87
2022-11-22T19:51:00.658Z,39.43
2022-11-22T19:54:05.687Z,36.57
2022-11-22T19:57:07.795Z,40.07
2022-11-22T20:00:11.657Z,39.53
2022-11-22T20:03:15.877Z,37.43
2022-11-22T20:06:19.045Z,38.13
2022-11-22T20:09:22.250Z,39.73
2022-11-22T20:12:24.089Z,36.07
2022-11-22T20:15:29.097Z,37.13
2022-11-22T20:18:30.930Z,37.67
2022-11-22T20:21:34.348Z,36.37
2022-11-22T20:24:36.462Z,34.23
2022-11-22T20:27:38.662Z,38.40
2022-11-22T20:30:40.741Z,37.43
2022-11-22T20:33:45.733Z,39.23
2022-11-22T20:36:47.791Z,38.27
2022-11-22T20:39:51.034Z,37.93
2022-11-22T20:42:52.916Z,38.37
2022-11-22T20:46:08.535Z,37.47
2022-11-22T20:49:10.939Z,33.90
2022-11-22T20:52:13.401Z,37.10
2022-11-22T20:55:19.271Z,39.40
2022-11-22T20:58:21.957Z,39.63
2022-11-22T21:01:26.269Z,35.87
2022-11-22T21:04:28.866Z,37.33
2022-11-22T21:07:31.194Z,35.97
2022-11-22T21:10:33.907Z,37.00
2022-11-22T21:13:36.210Z,36.63
2022-11-22T21:16:38.332Z,35.23
2022-11-22T21:19:43.006Z,35.60
2022-11-22T21:22:45.077Z,33.93
2022-11-22T21:25:47.462Z,36.67
2022-11-22T21:28:49.808Z,36.33
2022-11-22T21:31:51.881Z,36.67
2022-11-22T21:34:54.010Z,33.07
2022-11-22T21:37:56.177Z,34.73
2022-11-22T21:41:24.280Z,36.57
2022-11-22T21:44:24.503Z,35.53
2022-11-22T21:47:26.652Z,37.33
2022-11-22T21:50:30.033Z,35.40
2022-11-22T21:53:32.344Z,37.17
2022-11-22T21:56:34.549Z,34.17
2022-11-22T21:59:36.668Z,34.77
2022-11-22T22:02:38.584Z,37.07
2022-11-22T22:05:40.947Z,35.83
2022-11-22T22:08:42.794Z,37.37
2022-11-22T22:11:49.053Z,36.60
2022-11-22T22:14:50.949Z,37.97
2022-11-22T22:17:55.911Z,36.97
2022-11-22T22:21:07.236Z,37.50
2022-11-22T22:24:12.524Z,37.37
2022-11-22T22:27:14.381Z,35.87
2022-11-22T22:30:20.395Z,36.70
2022-11-22T22:33:22.332Z,36.63
2022-11-22T22:36:26.866Z,37.27
2022-11-22T22:39:29.142Z,35.70
2022-11-22T22:42:34.218Z,37.27
2022-11-22T22:45:36.615Z,38.60
2022-11-22T22:48:38.925Z,39.17
2022-11-22T22:51:44.555Z,36.93
2022-11-22T22:54:48.234Z,37.40
2022-11-22T22:57:50.072Z,36.37
2022-11-22T23:00:52.151Z,34.57
2022-11-22T23:03:57.593Z,37.87
2022-11-22T23:07:00.706Z,36.53
2022-11-22T23:10:02.482Z,36.73
2022-11-22T23:13:05.581Z,36.57
2022-11-22T23:16:13.105Z,36.43
2022-11-22T23:19:15.361Z,37.23
2022-11-22T23:22:20.838Z,38.43
2022-11-22T23:25:25.621Z,37.40
2022-11-22T23:28:29.074Z,37.60
2022-11-22T23:31:31.975Z,37.73
2022-11-22T23:34:33.919Z,37.07
2022-11-22T23:37:36.072Z,37.07
2022-11-22T23:40:37.918Z,36.70
2022-11-22T23:43:41.247Z,35.70
2022-11-22T23:46:43.138Z,37.70
2022-11-22T23:49:45.343Z,36.93
2022-11-22T23:52:47.143Z,39.03
2022-11-22T23:55:49.310Z,37.37
2022-11-22T23:58:51.611Z,36.13
